Timeline UpdatesTrip UpdatesNews PostsPvt PostsTravel TipsAdmin PostsConv PostsFollowed PostsChat RequestsBlog PostsPNR Posts

Disclaimer
Search
 
 
Sun Aug 31, 2014 03:44:49 ISTHomeTrainsΣChainsAtlasPNRForumGalleryNewsFAQTripsMembersLoginFeedback
No Recent News for this Train
Other Trains in the News **new
Latest...
.
Fri Dec 13, 2013 (03:40PM)
⇐ Return Journey: Train# 12833

12834/Howrah - Ahmedabad SF Express

Jul 14 2014 (10:03PM)
Change Departure Station:
Change Arrival Station:
Post a Train Travel TipPost a Train Travel Tip **new
Post a Comment/Question/Picture/VideoPost a Comment/Question/Picture/Video
Pantry/Catering
✓ Pantry Car Avbl
✓ Catering Avbl
RSA - Rake Sharing
Rake/Coach Composition
LOCO(SRC WAP 4E)-SLR-GEN-S1-S2-S3-S4-S5-S6-S7-S8-S9-S10-S11-S12-PC-S13-B1-B2-A1-A2-GEN-SLR
Loco
Loco: SRC WAP 4 ... Entry# 289462
News    PNR    Forum    Time-Table    Availability    Fare Chart    Map    Arr/Dep History    Trips    Gallery    ΣChains    X/O    Timeline    
Travel Time: 16h 33m    28 halts    Distance: 878 km    Avg Speed: 53 km/hr
Type: SuperFast
Zone: SER/South Eastern
Departs @ 20:27 (Avg 42m late)
Platform# 1
SMTWTFS
Wardha Junction/WR 
Arrives @ 13:00 +1 night (Avg 38m late)
Platform# 6
SMTWTFS
Ahmedabad Junction/ADI 

28 halts. 129 intermediate Stations between Wardha Junction and Ahmedabad Junction

Show ALL intermediate Stations  Show Old Time-Table

#CodeStation NameX/OArrivesAvgDepartsAvgHaltPFDay#KmSpeedElevZoneAddress
1HWHKolkata Howrah Junction (23)  -23:55+5221-1210.26410mERHowrah 711101, West Bengal
2MCAMecheda (6)  00:50+1000:52+182m--2-1151.93510mSERdist - purba Medinipur, West Bengal
3PKUPanskura Junction (6)X  01:13+901:15+112m--2-1139.5599mSERPanskura, West Bengal
4KGPKharagpur Junction (10)  02:00+902:05+95m32-1095.17742mSERKharagpur, West Bengal
5TATATatanagar Junction (5)XO  03:50+1503:55+155m--2-960.168164mSER91-657-2423026, Jharkhand
6CKPChakradharpur (3)  04:50+1604:57+167m12-897.878235mSERChakradharpur (West Singhbhum), Jharkhand
7ROURourkela Junction (5)X  06:15+1906:30+1815m32-796.762198mSERRourkela, Odisha
8GPRaj Gangpur (3)  06:59+1907:00+221m12-766.972237mSERRaj Ganpur, Odisha
9BMBBamra (3)  07:29+2407:30+251m--2-732.358259mSERBamra PH : 06642-229268, Odisha
10JSGJharsuguda Junction (5)X  08:08+2108:10+242m--2-695.888236mSERJharsuguda, Odisha
11BRJNBrajrajnagar  08:18+3108:20+322m--2-684.167212mSECRBrajrajnagar, Odisha
12BPHBelpahar  08:28+3208:30+332m--2-675.285235mSECRBelpahar, Odisha
13RIGRaigarh (3)  09:06+3909:11+385m--2-624.293220mSECRRaigarh, Chhattisgarh
14KHSKharsia  09:33+4809:35+482m--2-590.291259mSECRNational Highway 200, Chhattisgarh
15BUABaradwarX  09:55+5609:57+562m--2-559.955256mSECRJanjgir-Champa, Chhattisgarh
16CPHChampa Junction (3)X  10:14+5410:19+525m32-544.472264mSECRNational Highway 200 (07819-245767), Chhattisgarh
17NIANailaX  10:28+5410:30+542m--2-533.675273mSECRJanjgir, Chhattisgarh
18AKTAkaltara (4)X  10:42+5510:44+552m--2-518.629284mSECRDist. Janjgir Champa, Chhattisgarh
19BSPBilaspur Junction (8)X  11:40+2511:55+3315m22-491.477271mSECRBilaspur, Chhattisgarh
20BYTBhatapara (4)X  12:31+3712:33+382m22-445.287270mSECRBanjari Road, Chhattisgarh
21TLDTilda (3)X  12:51+3912:53+412m--2-419.255291mSECRBanjari Rd, Chhattisgarh
22RRaipur Junction (6)X  13:35+3913:45+3910m52-381.080297mSECRRaipur, Chhattisgarh
23BPHBBhilai Power House (3)XO  14:06+1814:08+182m12-353.017312mSECRBhilai, Chhattisgarh
24DURGDurg Junction (6)X  14:40+2714:45+295m42-344.087299mSECRPh: 91-788-2322059, Chhattisgarh
25RJNRaj Nandgaon (3)  15:06+3715:08+382m--2-313.686313mSECRRajnandgaon, Chhattisgarh
26DGGDongargarh (2)  15:30+4415:32+462m12-282.076353mSECRDongargarh, Chhattisgarh
27AGNAmgaon (2)X  16:12+5316:14+542m--2-231.647317mSECRGondia, Maharashtra
28GGondia Junction (7)X  16:43+4416:48+445m22-208.892316mSECRGondia 441601, Maharashtra
29TROTirora (3)  17:07+4917:09+492m--2-179.572282mSECRDist Gondiya, Maharashtra
30TMRTumsar Road (3)  17:26+4617:28+462m--2-159.172267mSECRBhandara, Maharashtra
31BRDBhandara Road (2)X  17:43+4717:45+472m22-141.293266mSECRState Highway 252, Maharashtra
32KPKamptee (3)X  18:16+4918:18+492m--2-93.220290mSECRMH 441001, Maharashtra
33NGPNagpur Junction (8)X  19:00+3719:10+4010m32-78.920314mCRNagpur 440001, Maharashtra
34AJNIAjni (3)X  19:19+4619:20+471m32-75.971310mCRNagpur 440003, Maharashtra
35WR»Wardha Junction (4)»X  20:24+4220:27+423m120.081289mCRWardha 442001, Maharashtra
36PLOPulgaon Junction (3)  20:49+4520:50+461m2229.567273mCRPulgaon, Maharashtra
37DMNDhamangaon (2)  21:08+4521:09+461m--249.567300mCRDhamangaon, Maharashtra
38CNDChandur (2)X  21:24+4721:25+481m--266.238331mCRAmravati Distt, Maharashtra
39BDBadnera Junction (4)X  22:10+3622:15+375m1294.986335mCRBadnera (Amravati) 444701, Maharashtra
40MZRMurtizapur (3)X  22:44+4522:45+491m--2136.774303mCRMurtajapur, Maharashtra
41AKAkola Junction (7)  23:15+5123:20+535m12173.993284mCRAkola-444001, Maharashtra
42SEGShegaon (2)  23:44+5723:45+581m22211.168281mCRShegaon 444203, Maharashtra
43JMJalamb Junction (3)  23:56+5723:58+582m12223.567259mCRJalamb, Maharashtra
44NNNandura  00:09+5600:10+1:001m13235.770267mCRNandura, Maharashtra
45MKUMalkapur (2)  00:34+5700:35+591m23263.650252mCRMalkapur, Maharashtra
46BSLBhusaval Junction (8)XO  01:35+4901:45+5110m43313.541208mCRBhusaval 425201, Maharashtra
47JLJalgaon Junction (4)X  02:20+4102:25+425m23337.651213mCRJalgaon 425001, Maharashtra
48DXGDharangaon (2)  03:00+4903:01+501m13367.351217mWRDharangaon, Maharashtra
49ANAmalner (2)  03:30+4503:33+453m13392.273188mWRAmalner, Maharashtra
50SNKSindkheda (1)  04:07+5104:08+521m13433.845178mWRState Highway 11, Maharashtra
51DDEDondaicha (2)X  04:34+4704:35+491m23453.249163mWRDondaicha, Maharashtra
52NDBNandurbar (3)  05:17+4305:25+438m13487.650203mWRNandurbar, Maharashtra
53NWUNavapur (2)  06:35+3506:37+392m--3545.555124mWRNavapur, Gujarat
54VYAVyara (2)  07:23+3507:25+352m13587.46090mWRVyara, Gujarat
55MIDMadhi (1)  07:40+3807:42+382m13602.45945mWRMadhi, Gujarat
56BIYBardoli (2)X  07:57+4007:59+402m--3617.23735mWRNear Bardoli Sugar Factory Bardoli, Gujarat
57UDNUdhna Junction (3)XO  08:43+3108:45+332m13644.41416mWRUdhna 394210, Gujarat
58STSurat (4)X  09:02+2909:12+2910m23648.48119mWRSurat 395001, Gujarat
59BHBharuch Junction (5)X  09:56+4509:58+462m33707.77419mWRBharuch, Gujarat
60BRCVadodara Junction (7)X  10:55+5211:00+535m33778.27236mWRVadodara 390005, Gujarat
61ANNDAnand Junction (6)  11:30+5111:32+522m23814.05344mWRAnand, Gujarat
62NDNadiad Junction (4)X  11:53+4711:55+462m--3832.45837mWRNadiad, Gujarat
63MANManinagar (2)X  12:39+1012:41+102m13874.81050mWRAhmadabad, Gujarat
64ADI•Ahmedabad Junction (12)•  13:00+38-63878.0-51mWRAhmedabad, Gujarat
Scroll to Top
Scroll to Bottom